sensor_id;sensor_type;location;lat;lon;timestamp;temperature;humidity
12874;DHT22;6505;51.114;13.128;2023-07-28T18:19:12;21.50;98.50
12874;DHT22;6505;51.114;13.128;2023-07-28T18:21:40;21.50;99.90
12874;DHT22;6505;51.114;13.128;2023-07-28T18:24:08;21.70;99.90
12874;DHT22;6505;51.114;13.128;2023-07-28T18:26:37;22.00;99.90
12874;DHT22;6505;51.114;13.128;2023-07-28T18:29:05;22.40;99.90
12874;DHT22;6505;51.114;13.128;2023-07-28T18:31:33;22.70;99.10
12874;DHT22;6505;51.114;13.128;2023-07-28T18:34:02;23.00;98.00
12874;DHT22;6505;51.114;13.128;2023-07-28T18:36:31;23.40;97.60
12874;DHT22;6505;51.114;13.128;2023-07-28T18:39:00;23.70;96.60
12874;DHT22;6505;51.114;13.128;2023-07-28T18:41:28;23.90;95.80
12874;DHT22;6505;51.114;13.128;2023-07-28T18:43:59;24.20;95.00
12874;DHT22;6505;51.114;13.128;2023-07-28T18:46:27;24.40;94.30
12874;DHT22;6505;51.114;13.128;2023-07-28T18:48:55;24.60;93.70
12874;DHT22;6505;51.114;13.128;2023-07-28T18:51:23;24.80;93.00
12874;DHT22;6505;51.114;13.128;2023-07-28T18:53:52;24.90;92.40
12874;DHT22;6505;51.114;13.128;2023-07-28T18:56:21;25.00;91.90
12874;DHT22;6505;51.114;13.128;2023-07-28T18:58:49;25.20;91.30
12874;DHT22;6505;51.114;13.128;2023-07-28T19:01:17;25.30;90.60
12874;DHT22;6505;51.114;13.128;2023-07-28T19:03:45;25.40;90.00
12874;DHT22;6505;51.114;13.128;2023-07-28T19:06:14;25.40;89.00
12874;DHT22;6505;51.114;13.128;2023-07-28T19:08:45;25.50;88.10
12874;DHT22;6505;51.114;13.128;2023-07-28T19:11:18;25.60;87.70
12874;DHT22;6505;51.114;13.128;2023-07-28T19:13:46;25.70;86.90
12874;DHT22;6505;51.114;13.128;2023-07-28T19:16:15;25.70;86.50
12874;DHT22;6505;51.114;13.128;2023-07-28T19:18:43;25.80;86.00
12874;DHT22;6505;51.114;13.128;2023-07-28T19:21:12;25.80;85.30
12874;DHT22;6505;51.114;13.128;2023-07-28T19:23:41;25.90;84.90
12874;DHT22;6505;51.114;13.128;2023-07-28T19:26:09;25.90;84.30
12874;DHT22;6505;51.114;13.128;2023-07-28T19:28:39;25.90;84.20
12874;DHT22;6505;51.114;13.128;2023-07-28T19:31:08;26.00;84.60
12874;DHT22;6505;51.114;13.128;2023-07-28T19:33:36;26.00;83.40
12874;DHT22;6505;51.114;13.128;2023-07-28T19:36:06;26.00;83.00
12874;DHT22;6505;51.114;13.128;2023-07-28T19:38:35;26.00;82.40
12874;DHT22;6505;51.114;13.128;2023-07-28T19:41:03;26.10;82.00
12874;DHT22;6505;51.114;13.128;2023-07-28T19:43:31;26.10;81.80
12874;DHT22;6505;51.114;13.128;2023-07-28T19:46:01;26.10;81.40
12874;DHT22;6505;51.114;13.128;2023-07-28T19:48:29;26.10;81.40
12874;DHT22;6505;51.114;13.128;2023-07-28T19:50:57;26.10;81.70
12874;DHT22;6505;51.114;13.128;2023-07-28T19:53:26;26.10;80.80
12874;DHT22;6505;51.114;13.128;2023-07-28T19:55:54;26.10;81.30
12874;DHT22;6505;51.114;13.128;2023-07-28T19:58:22;26.10;80.20
12874;DHT22;6505;51.114;13.128;2023-07-28T20:00:50;26.20;80.00
12874;DHT22;6505;51.114;13.128;2023-07-28T20:03:20;26.20;79.60
12874;DHT22;6505;51.114;13.128;2023-07-28T20:05:49;26.10;79.30
12874;DHT22;6505;51.114;13.128;2023-07-28T20:08:17;26.10;79.00
12874;DHT22;6505;51.114;13.128;2023-07-28T20:10:45;26.20;78.70
12874;DHT22;6505;51.114;13.128;2023-07-28T20:13:13;26.10;78.70
12874;DHT22;6505;51.114;13.128;2023-07-28T20:15:41;26.10;78.40
12874;DHT22;6505;51.114;13.128;2023-07-28T20:18:10;26.20;78.60
12874;DHT22;6505;51.114;13.128;2023-07-28T20:20:40;26.20;78.40
12874;DHT22;6505;51.114;13.128;2023-07-28T20:23:08;26.10;78.20
12874;DHT22;6505;51.114;13.128;2023-07-28T20:25:37;26.10;78.00
12874;DHT22;6505;51.114;13.128;2023-07-28T20:28:06;26.10;77.90
12874;DHT22;6505;51.114;13.128;2023-07-28T20:30:34;26.10;77.80
12874;DHT22;6505;51.114;13.128;2023-07-28T20:33:03;26.10;77.90
12874;DHT22;6505;51.114;13.128;2023-07-28T20:35:31;26.10;77.90
12874;DHT22;6505;51.114;13.128;2023-07-28T20:38:02;26.10;77.40
12874;DHT22;6505;51.114;13.128;2023-07-28T20:40:30;26.10;77.40
12874;DHT22;6505;51.114;13.128;2023-07-28T20:42:58;26.10;77.00
12874;DHT22;6505;51.114;13.128;2023-07-28T20:45:26;26.10;77.00
12874;DHT22;6505;51.114;13.128;2023-07-28T20:47:55;26.10;76.80
12874;DHT22;6505;51.114;13.128;2023-07-28T20:50:23;26.10;76.60
12874;DHT22;6505;51.114;13.128;2023-07-28T20:52:51;26.10;76.60
12874;DHT22;6505;51.114;13.128;2023-07-28T20:55:21;26.00;76.20
12874;DHT22;6505;51.114;13.128;2023-07-28T20:57:49;26.10;76.10
12874;DHT22;6505;51.114;13.128;2023-07-28T21:00:17;26.00;76.00
12874;DHT22;6505;51.114;13.128;2023-07-28T21:02:46;26.00;75.70
12874;DHT22;6505;51.114;13.128;2023-07-28T21:05:14;26.00;75.60
12874;DHT22;6505;51.114;13.128;2023-07-28T21:07:42;26.00;75.60
12874;DHT22;6505;51.114;13.128;2023-07-28T21:10:10;26.00;75.50
12874;DHT22;6505;51.114;13.128;2023-07-28T21:12:40;26.00;75.30
12874;DHT22;6505;51.114;13.128;2023-07-28T21:15:09;26.00;75.10
12874;DHT22;6505;51.114;13.128;2023-07-28T21:17:38;26.00;74.90
12874;DHT22;6505;51.114;13.128;2023-07-28T21:20:09;26.00;74.80
12874;DHT22;6505;51.114;13.128;2023-07-28T21:22:38;26.00;74.90
12874;DHT22;6505;51.114;13.128;2023-07-28T21:25:07;26.00;74.60
12874;DHT22;6505;51.114;13.128;2023-07-28T21:27:37;25.90;74.80
12874;DHT22;6505;51.114;13.128;2023-07-28T21:30:08;26.00;74.60
12874;DHT22;6505;51.114;13.128;2023-07-28T21:32:37;25.90;74.60
12874;DHT22;6505;51.114;13.128;2023-07-28T21:35:06;25.90;74.50
12874;DHT22;6505;51.114;13.128;2023-07-28T21:37:34;25.90;74.40
12874;DHT22;6505;51.114;13.128;2023-07-28T21:40:04;25.90;74.00
12874;DHT22;6505;51.114;13.128;2023-07-28T21:42:33;25.90;74.20
12874;DHT22;6505;51.114;13.128;2023-07-28T21:45:02;25.90;74.00
12874;DHT22;6505;51.114;13.128;2023-07-28T21:47:32;25.90;74.10
12874;DHT22;6505;51.114;13.128;2023-07-28T21:50:01;25.90;73.90
12874;DHT22;6505;51.114;13.128;2023-07-28T21:52:29;25.80;73.80
12874;DHT22;6505;51.114;13.128;2023-07-28T21:54:57;25.80;73.70
12874;DHT22;6505;51.114;13.128;2023-07-28T21:57:25;25.90;73.80
12874;DHT22;6505;51.114;13.128;2023-07-28T21:59:53;25.80;73.70
12874;DHT22;6505;51.114;13.128;2023-07-28T22:02:21;25.80;73.60
12874;DHT22;6505;51.114;13.128;2023-07-28T22:04:51;25.80;73.70
12874;DHT22;6505;51.114;13.128;2023-07-28T22:07:20;25.80;73.60
12874;DHT22;6505;51.114;13.128;2023-07-28T22:09:48;25.80;73.60
12874;DHT22;6505;51.114;13.128;2023-07-28T22:12:16;25.80;73.60
12874;DHT22;6505;51.114;13.128;2023-07-28T22:14:44;25.70;74.20
12874;DHT22;6505;51.114;13.128;2023-07-28T22:17:12;25.80;73.70
12874;DHT22;6505;51.114;13.128;2023-07-28T22:19:41;25.70;73.60
12874;DHT22;6505;51.114;13.128;2023-07-28T22:22:10;25.70;73.60
12874;DHT22;6505;51.114;13.128;2023-07-28T22:24:39;25.70;73.70
12874;DHT22;6505;51.114;13.128;2023-07-28T22:27:07;25.70;73.70
12874;DHT22;6505;51.114;13.128;2023-07-28T22:29:35;25.60;74.00
12874;DHT22;6505;51.114;13.128;2023-07-28T22:32:05;25.70;73.70
12874;DHT22;6505;51.114;13.128;2023-07-28T22:34:34;25.60;73.80
12874;DHT22;6505;51.114;13.128;2023-07-28T22:37:03;25.70;73.70
12874;DHT22;6505;51.114;13.128;2023-07-28T22:39:34;25.70;74.00
12874;DHT22;6505;51.114;13.128;2023-07-28T22:42:03;25.70;73.80
12874;DHT22;6505;51.114;13.128;2023-07-28T22:44:31;25.60;73.90
12874;DHT22;6505;51.114;13.128;2023-07-28T22:46:59;25.60;73.80
12874;DHT22;6505;51.114;13.128;2023-07-28T22:49:28;25.60;74.00
12874;DHT22;6505;51.114;13.128;2023-07-28T22:51:56;25.60;74.10
12874;DHT22;6505;51.114;13.128;2023-07-28T22:54:24;25.60;74.10
12874;DHT22;6505;51.114;13.128;2023-07-28T22:56:54;25.60;74.10
12874;DHT22;6505;51.114;13.128;2023-07-28T22:59:22;25.60;74.30
12874;DHT22;6505;51.114;13.128;2023-07-28T23:01:50;25.50;74.20
12874;DHT22;6505;51.114;13.128;2023-07-28T23:04:18;25.50;74.10
12874;DHT22;6505;51.114;13.128;2023-07-28T23:06:47;25.50;74.10
12874;DHT22;6505;51.114;13.128;2023-07-28T23:09:15;25.50;74.20
12874;DHT22;6505;51.114;13.128;2023-07-28T23:11:43;25.50;74.30
12874;DHT22;6505;51.114;13.128;2023-07-28T23:14:12;25.50;74.30
12874;DHT22;6505;51.114;13.128;2023-07-28T23:16:41;25.50;74.20
12874;DHT22;6505;51.114;13.128;2023-07-28T23:19:09;25.50;74.40
12874;DHT22;6505;51.114;13.128;2023-07-28T23:21:37;25.50;74.50
12874;DHT22;6505;51.114;13.128;2023-07-28T23:24:06;25.50;73.90
12874;DHT22;6505;51.114;13.128;2023-07-28T23:26:34;25.40;74.50
12874;DHT22;6505;51.114;13.128;2023-07-28T23:29:02;25.40;74.50
12874;DHT22;6505;51.114;13.128;2023-07-28T23:31:32;25.40;74.50
12874;DHT22;6505;51.114;13.128;2023-07-28T23:34:00;25.40;74.60
12874;DHT22;6505;51.114;13.128;2023-07-28T23:36:30;25.40;74.60
12874;DHT22;6505;51.114;13.128;2023-07-28T23:38:59;25.40;74.50
12874;DHT22;6505;51.114;13.128;2023-07-28T23:41:27;25.40;74.60
12874;DHT22;6505;51.114;13.128;2023-07-28T23:43:56;25.40;74.70
12874;DHT22;6505;51.114;13.128;2023-07-28T23:46:24;25.30;74.70
12874;DHT22;6505;51.114;13.128;2023-07-28T23:48:53;25.40;74.80
12874;DHT22;6505;51.114;13.128;2023-07-28T23:51:21;25.30;74.70
12874;DHT22;6505;51.114;13.128;2023-07-28T23:53:50;25.30;74.70
12874;DHT22;6505;51.114;13.128;2023-07-28T23:56:18;25.30;74.60
12874;DHT22;6505;51.114;13.128;2023-07-28T23:58:46;25.30;74.70
